createdAt,value
2016-03-22T00:00:08.736Z,712.38
2016-03-22T00:00:22.908Z,712.66
2016-03-22T00:00:36.861Z,712.53
2016-03-22T00:00:51.204Z,712.64
2016-03-22T00:01:05.067Z,712.82
2016-03-22T00:01:19.192Z,712.82
2016-03-22T00:01:33.411Z,713.02
2016-03-22T00:01:47.692Z,712.6
2016-03-22T00:02:01.848Z,712.72
2016-03-22T00:02:16.084Z,712.8
2016-03-22T00:02:30.428Z,713.01
2016-03-22T00:02:44.647Z,712.92
2016-03-22T00:02:57.913Z,712.81
2016-03-22T00:03:12.635Z,712.81
2016-03-22T00:03:29.823Z,712.66
2016-03-22T00:03:44.010Z,712.89
2016-03-22T00:03:58.245Z,712.38
2016-03-22T00:04:12.278Z,712.36
2016-03-22T00:04:26.606Z,712.69
2016-03-22T00:04:40.747Z,712.58
2016-03-22T00:04:54.997Z,712.85
2016-03-22T00:05:23.014Z,712.66
2016-03-22T00:05:37.296Z,712.69
2016-03-22T00:05:51.389Z,712.61
2016-03-22T00:06:05.409Z,712.66
2016-03-22T00:06:19.643Z,712.76
2016-03-22T00:06:33.768Z,712.73
2016-03-22T00:06:48.159Z,712.89
2016-03-22T00:07:02.362Z,712.98
2016-03-22T00:07:16.614Z,712.79
2016-03-22T00:07:30.755Z,712.76
2016-03-22T00:07:44.989Z,712.82
2016-03-22T00:07:59.302Z,713.05
2016-03-22T00:08:13.663Z,712.74
2016-03-22T00:08:27.663Z,712.86
2016-03-22T00:08:42.272Z,713
2016-03-22T00:08:56.382Z,712.79
2016-03-22T00:09:10.650Z,713.14
2016-03-22T00:09:24.963Z,713.07
2016-03-22T00:09:39.057Z,712.8
2016-03-22T00:09:53.478Z,712.72
2016-03-22T00:10:07.856Z,712.52
2016-03-22T00:10:22.200Z,712.81
2016-03-22T00:10:36.185Z,712.85
2016-03-22T00:10:50.325Z,712.93
2016-03-22T00:11:04.216Z,713
2016-03-22T00:11:17.969Z,712.47
2016-03-22T00:11:32.203Z,712.73
2016-03-22T00:11:46.531Z,712.63
2016-03-22T00:12:00.891Z,712.76
2016-03-22T00:12:15.206Z,712.76
2016-03-22T00:12:29.691Z,712.87
2016-03-22T00:12:44.331Z,712.47
2016-03-22T00:12:58.737Z,712.69
2016-03-22T00:13:12.818Z,712.52
2016-03-22T00:13:26.005Z,712.62
2016-03-22T00:13:40.005Z,712.8
2016-03-22T00:13:54.099Z,712.72
2016-03-22T00:14:08.210Z,712.45
2016-03-22T00:14:22.523Z,712.53
2016-03-22T00:14:36.757Z,712.6
2016-03-22T00:14:50.038Z,712.48
2016-03-22T00:15:03.991Z,712.61
2016-03-22T00:15:18.339Z,712.92
2016-03-22T00:15:32.308Z,712.54
2016-03-22T00:15:46.292Z,712.67
2016-03-22T00:16:00.480Z,712.91
2016-03-22T00:16:14.779Z,712.78
2016-03-22T00:16:28.888Z,712.52
2016-03-22T00:16:43.357Z,712.56
2016-03-22T00:16:57.372Z,712.56
2016-03-22T00:17:11.499Z,712.6
2016-03-22T00:17:26.203Z,712.36
2016-03-22T00:17:40.562Z,712.37
2016-03-22T00:17:55.124Z,712.46
2016-03-22T00:18:09.238Z,712.45
2016-03-22T00:18:23.316Z,712.37
2016-03-22T00:18:37.519Z,712.38
2016-03-22T00:18:51.582Z,712.61
2016-03-22T00:19:05.771Z,712.51
2016-03-22T00:19:19.849Z,712.52
2016-03-22T00:19:34.037Z,712.59
2016-03-22T00:19:47.974Z,712.34
2016-03-22T00:20:01.287Z,712.47
2016-03-22T00:20:15.243Z,712.58
2016-03-22T00:20:29.758Z,712.39
2016-03-22T00:20:44.055Z,712.45
2016-03-22T00:20:58.274Z,712.41
2016-03-22T00:21:12.824Z,712.6
2016-03-22T00:21:27.043Z,712.5
2016-03-22T00:21:41.324Z,712.41
2016-03-22T00:21:55.199Z,712.42
2016-03-22T00:22:09.342Z,712.68
2016-03-22T00:22:23.342Z,712.43
2016-03-22T00:22:37.342Z,712.31
2016-03-22T00:22:51.435Z,712.6
2016-03-22T00:23:05.563Z,712.54
2016-03-22T00:23:19.501Z,712.67
2016-03-22T00:23:33.829Z,712.52
2016-03-22T00:23:48.001Z,712.35
2016-03-22T00:24:02.688Z,712.59
2016-03-22T00:24:16.816Z,712.84
2016-03-22T00:24:30.223Z,712.25
2016-03-22T00:24:44.316Z,712.32
2016-03-22T00:24:58.910Z,712.29
2016-03-22T00:25:13.162Z,712.9
2016-03-22T00:25:27.459Z,712.79
2016-03-22T00:25:41.850Z,712.52
2016-03-22T00:25:55.490Z,712.5
2016-03-22T00:26:09.618Z,712.55
2016-03-22T00:26:23.540Z,712.89
2016-03-22T00:26:37.853Z,712.41
2016-03-22T00:27:06.684Z,712.44
2016-03-22T00:27:20.840Z,712.41
2016-03-22T00:27:34.996Z,712.83
2016-03-22T00:27:48.996Z,712.61
2016-03-22T00:28:03.043Z,712.84
2016-03-22T00:28:17.014Z,712.43
2016-03-22T00:28:31.108Z,712.77
2016-03-22T00:28:45.389Z,712.57
2016-03-22T00:28:59.451Z,712.55
2016-03-22T00:29:13.501Z,712.26
2016-03-22T00:29:27.720Z,712.73
2016-03-22T00:29:41.970Z,712.72
2016-03-22T00:29:56.064Z,712.67
2016-03-22T00:30:10.347Z,712.69
2016-03-22T00:30:24.800Z,712.72
2016-03-22T00:30:39.128Z,712.87
2016-03-22T00:30:53.316Z,712.88
2016-03-22T00:31:07.631Z,712.82
2016-03-22T00:31:21.881Z,712.9
2016-03-22T00:31:36.131Z,712.72
2016-03-22T00:31:50.256Z,712.31
2016-03-22T00:32:04.459Z,712.55
2016-03-22T00:32:46.680Z,712.56
2016-03-22T00:33:00.993Z,712.58
2016-03-22T00:33:15.449Z,712.72
2016-03-22T00:33:30.011Z,712.68
2016-03-22T00:33:44.199Z,712.67
2016-03-22T00:33:58.605Z,712.59
2016-03-22T00:34:12.717Z,712.68
2016-03-22T00:34:26.983Z,712.61
2016-03-22T00:34:41.061Z,712.35
2016-03-22T00:34:55.061Z,712.47
2016-03-22T00:35:09.407Z,712.53
2016-03-22T00:35:22.844Z,712.42
2016-03-22T00:35:37.516Z,712.33
2016-03-22T00:35:51.766Z,712.44
2016-03-22T00:36:06.082Z,712.41
2016-03-22T00:36:20.660Z,712.48
2016-03-22T00:36:34.660Z,712.25
2016-03-22T00:36:48.879Z,712.12
2016-03-22T00:37:02.957Z,712.36
2016-03-22T00:37:17.115Z,712.65
2016-03-22T00:37:31.506Z,712.38
2016-03-22T00:37:45.709Z,712.18
2016-03-22T00:38:00.006Z,712.38
2016-03-22T00:38:14.056Z,712.26
2016-03-22T00:38:42.088Z,712.29
2016-03-22T00:38:56.510Z,712.37
2016-03-22T00:39:10.808Z,712.31
2016-03-22T00:39:25.246Z,712.1
2016-03-22T00:39:39.277Z,712.17
2016-03-22T00:39:53.418Z,712.45
2016-03-22T00:40:10.499Z,712.71
2016-03-22T00:40:24.593Z,712.17
2016-03-22T00:40:39.030Z,712.47
2016-03-22T00:40:53.311Z,712.21
2016-03-22T00:41:07.517Z,712.32
2016-03-22T00:41:21.579Z,712.11
2016-03-22T00:41:36.017Z,712.17
2016-03-22T00:41:50.235Z,711.97
2016-03-22T00:42:04.329Z,711.9
2016-03-22T00:42:18.707Z,712.1
2016-03-22T00:42:32.926Z,712.23
2016-03-22T00:42:47.082Z,712.2
2016-03-22T00:43:01.238Z,712.19
2016-03-22T00:43:15.585Z,712.39
2016-03-22T00:43:29.741Z,712.18
2016-03-22T00:43:43.257Z,712.39
2016-03-22T00:43:57.273Z,712.4
2016-03-22T00:44:11.446Z,712.14
2016-03-22T00:44:26.056Z,712.26
2016-03-22T00:44:40.228Z,712.16
2016-03-22T00:45:08.481Z,712.07
2016-03-22T00:45:22.449Z,712.24
2016-03-22T00:45:36.965Z,712.32
2016-03-22T00:45:51.028Z,712.34
2016-03-22T00:46:05.215Z,712.29
2016-03-22T00:46:19.390Z,712.23
2016-03-22T00:46:33.734Z,712.14
2016-03-22T00:46:47.796Z,712.24
2016-03-22T00:47:01.890Z,712.37
2016-03-22T00:47:15.830Z,712.3
2016-03-22T00:47:32.971Z,712.32
2016-03-22T00:47:47.768Z,712.24
2016-03-22T00:48:02.112Z,712.16
2016-03-22T00:48:16.723Z,712.26
2016-03-22T00:48:30.723Z,711.9
2016-03-22T00:48:44.754Z,712
2016-03-22T00:48:58.895Z,712.12
2016-03-22T00:49:13.179Z,712.34
2016-03-22T00:49:27.195Z,712.21
2016-03-22T00:49:41.070Z,712.2
2016-03-22T00:49:55.085Z,712.2
2016-03-22T00:50:09.260Z,712.34
2016-03-22T00:50:23.838Z,712.21
2016-03-22T00:50:38.104Z,712.31
2016-03-22T00:50:52.323Z,712.29
2016-03-22T00:51:06.669Z,712.17
2016-03-22T00:51:20.684Z,712.25
2016-03-22T00:51:34.137Z,712.21
2016-03-22T00:51:48.387Z,712.31
2016-03-22T00:52:02.840Z,712.24
2016-03-22T00:52:17.015Z,712.35
2016-03-22T00:52:31.437Z,712.1
2016-03-22T00:52:46.062Z,712.2
2016-03-22T00:53:00.015Z,712.29
2016-03-22T00:53:14.236Z,712.18
2016-03-22T00:53:27.611Z,712.28
2016-03-22T00:53:41.830Z,712.28
2016-03-22T00:53:56.049Z,712.03
2016-03-22T00:54:10.146Z,712.17
2016-03-22T00:54:24.646Z,712.08
2016-03-22T00:54:38.959Z,712.21
2016-03-22T00:54:53.162Z,712.12
2016-03-22T00:55:07.367Z,711.89
2016-03-22T00:55:22.023Z,712.16
2016-03-22T00:55:36.476Z,712.2
2016-03-22T00:55:50.430Z,712.09
2016-03-22T00:56:04.742Z,712.08
2016-03-22T00:56:18.058Z,711.99
2016-03-22T00:56:32.136Z,712.13
2016-03-22T00:56:46.745Z,712.03
2016-03-22T00:57:00.776Z,712.05
2016-03-22T00:57:14.685Z,712.05
2016-03-22T00:57:29.013Z,712.09
2016-03-22T00:57:43.138Z,712.15
2016-03-22T00:57:57.278Z,712.1
2016-03-22T00:58:11.469Z,712.1
2016-03-22T00:58:25.828Z,712.17
2016-03-22T00:58:39.922Z,712.02
2016-03-22T00:58:54.250Z,712.06
2016-03-22T00:59:08.424Z,712.09
2016-03-22T00:59:22.971Z,712.06
2016-03-22T00:59:37.268Z,712.03
2016-03-22T00:59:51.596Z,711.94
2016-03-22T01:00:05.674Z,711.99
2016-03-22T01:00:20.334Z,712.01
2016-03-22T01:00:34.662Z,711.79
2016-03-22T01:00:48.194Z,711.76
2016-03-22T01:01:02.319Z,711.69
2016-03-22T01:01:16.649Z,711.75
2016-03-22T01:01:31.508Z,711.89
2016-03-22T01:01:45.633Z,711.82
2016-03-22T01:01:59.977Z,712.03
2016-03-22T01:02:14.057Z,711.9
2016-03-22T01:02:28.291Z,711.93
2016-03-22T01:02:42.401Z,711.96
2016-03-22T01:02:56.307Z,711.93
2016-03-22T01:03:09.967Z,711.92
2016-03-22T01:03:26.889Z,712.05
2016-03-22T01:03:41.452Z,711.9
2016-03-22T01:03:55.670Z,712
2016-03-22T01:04:37.610Z,712.02
2016-03-22T01:04:52.063Z,711.95
2016-03-22T01:05:06.191Z,712.06
2016-03-22T01:05:20.253Z,711.8
2016-03-22T01:05:34.816Z,711.86
2016-03-22T01:05:48.941Z,711.89
2016-03-22T01:06:03.269Z,711.84
2016-03-22T01:06:17.475Z,711.81
2016-03-22T01:06:45.553Z,711.94
2016-03-22T01:06:59.819Z,711.82
2016-03-22T01:07:14.102Z,711.84
2016-03-22T01:07:28.055Z,711.88
2016-03-22T01:07:42.258Z,711.66
2016-03-22T01:07:56.743Z,711.87
2016-03-22T01:08:11.027Z,711.91
2016-03-22T01:08:25.355Z,711.81
2016-03-22T01:08:39.418Z,711.68
2016-03-22T01:08:53.621Z,711.73
2016-03-22T01:09:07.749Z,711.75
2016-03-22T01:09:22.358Z,711.79
2016-03-22T01:09:36.233Z,711.75
2016-03-22T01:09:50.218Z,711.75
2016-03-22T01:10:04.124Z,711.77
2016-03-22T01:10:18.141Z,711.73
2016-03-22T01:10:31.954Z,711.84
2016-03-22T01:10:46.266Z,711.9
2016-03-22T01:11:00.407Z,711.71
2016-03-22T01:11:14.848Z,711.98
2016-03-22T01:11:29.191Z,711.8
2016-03-22T01:11:43.144Z,711.97
2016-03-22T01:11:57.191Z,711.96
2016-03-22T01:12:11.366Z,711.79
2016-03-22T01:12:25.429Z,711.73
2016-03-22T01:12:39.819Z,711.88
2016-03-22T01:12:54.226Z,711.71
2016-03-22T01:13:08.337Z,711.65
2016-03-22T01:13:22.321Z,711.81
2016-03-22T01:13:50.571Z,711.79
2016-03-22T01:14:04.837Z,711.65
2016-03-22T01:14:18.669Z,711.66
2016-03-22T01:14:32.732Z,711.8
2016-03-22T01:14:46.935Z,711.76
2016-03-22T01:15:00.966Z,711.76
2016-03-22T01:15:15.062Z,711.74
2016-03-22T01:15:29.249Z,711.87
2016-03-22T01:15:43.202Z,711.81
2016-03-22T01:15:57.202Z,711.82
2016-03-22T01:16:11.643Z,711.86
2016-03-22T01:16:25.846Z,711.94
2016-03-22T01:16:40.158Z,711.83
2016-03-22T01:16:54.455Z,711.85
2016-03-22T01:17:08.692Z,711.82
2016-03-22T01:17:22.020Z,711.54
2016-03-22T01:17:36.145Z,711.66
2016-03-22T01:17:50.489Z,711.72
2016-03-22T01:18:04.692Z,711.66
2016-03-22T01:18:18.929Z,711.78
2016-03-22T01:18:47.351Z,711.69
2016-03-22T01:19:01.617Z,711.78
2016-03-22T01:19:15.712Z,711.77
2016-03-22T01:19:29.712Z,711.9
2016-03-22T01:19:43.119Z,711.86
2016-03-22T01:19:57.072Z,711.77
2016-03-22T01:20:11.293Z,711.79
2016-03-22T01:20:25.215Z,711.84
2016-03-22T01:20:39.262Z,711.79
2016-03-22T01:20:53.450Z,711.73
2016-03-22T01:21:08.000Z,711.65
2016-03-22T01:21:22.171Z,711.73
2016-03-22T01:21:36.375Z,711.76
2016-03-22T01:21:50.562Z,711.71
2016-03-22T01:22:04.609Z,711.67
2016-03-22T01:22:18.658Z,711.81
2016-03-22T01:22:33.017Z,711.81
2016-03-22T01:22:47.205Z,711.77
2016-03-22T01:23:01.330Z,711.87
2016-03-22T01:23:15.271Z,711.85
2016-03-22T01:23:29.943Z,711.83
2016-03-22T01:23:43.959Z,711.84
2016-03-22T01:23:57.834Z,711.75
2016-03-22T01:24:11.101Z,711.68
2016-03-22T01:24:25.429Z,711.74
2016-03-22T01:24:39.633Z,711.69
2016-03-22T01:25:07.103Z,711.69
2016-03-22T01:25:21.681Z,711.74
2016-03-22T01:25:35.822Z,711.76
2016-03-22T01:25:50.181Z,711.8
2016-03-22T01:26:04.525Z,711.8
2016-03-22T01:26:18.701Z,711.73
2016-03-22T01:26:32.873Z,711.63
2016-03-22T01:26:47.217Z,711.76
2016-03-22T01:27:01.514Z,711.61
2016-03-22T01:27:15.656Z,711.83
2016-03-22T01:27:29.703Z,711.7
2016-03-22T01:27:43.906Z,711.73
2016-03-22T01:27:58.187Z,711.83
2016-03-22T01:28:12.175Z,711.84
2016-03-22T01:28:26.378Z,711.81
2016-03-22T01:28:40.769Z,711.78
2016-03-22T01:28:55.222Z,711.63
2016-03-22T01:29:09.364Z,711.76
2016-03-22T01:29:23.802Z,711.86
2016-03-22T01:29:37.958Z,711.77
2016-03-22T01:29:52.067Z,711.8
2016-03-22T01:30:06.399Z,711.77
2016-03-22T01:30:20.852Z,711.79
2016-03-22T01:31:03.180Z,711.74
2016-03-22T01:31:17.027Z,711.74
2016-03-22T01:31:59.448Z,711.79
2016-03-22T01:32:12.780Z,711.7
2016-03-22T01:32:26.780Z,711.69
2016-03-22T01:32:40.686Z,711.66
2016-03-22T01:32:54.858Z,711.69
2016-03-22T01:33:09.578Z,711.63
2016-03-22T01:33:26.782Z,711.59
2016-03-22T01:33:41.000Z,711.67
2016-03-22T01:33:55.563Z,711.59
2016-03-22T01:34:09.800Z,711.64
2016-03-22T01:34:23.456Z,711.58
2016-03-22T01:34:37.488Z,711.58
2016-03-22T01:34:51.753Z,711.62
2016-03-22T01:35:05.628Z,711.66
2016-03-22T01:35:19.834Z,711.62
2016-03-22T01:35:33.866Z,711.69
2016-03-22T01:35:47.991Z,711.65
2016-03-22T01:36:16.086Z,711.6
2016-03-22T01:36:30.352Z,711.58
2016-03-22T01:36:44.524Z,711.46
2016-03-22T01:36:58.430Z,711.61
2016-03-22T01:37:12.683Z,711.57
2016-03-22T01:37:26.886Z,711.74
2016-03-22T01:37:40.246Z,711.67
2016-03-22T01:37:54.261Z,711.61
2016-03-22T01:38:08.560Z,711.67
2016-03-22T01:38:22.779Z,711.68
2016-03-22T01:38:37.295Z,711.62
2016-03-22T01:39:05.513Z,711.58
2016-03-22T01:39:19.736Z,711.67
2016-03-22T01:39:34.049Z,711.61
2016-03-22T01:39:48.439Z,711.67
2016-03-22T01:40:02.580Z,711.63
2016-03-22T01:40:16.613Z,711.29
2016-03-22T01:40:29.957Z,711.5
2016-03-22T01:40:44.113Z,711.74
2016-03-22T01:40:58.238Z,711.52
2016-03-22T01:41:12.288Z,711.64
2016-03-22T01:41:26.600Z,711.55
2016-03-22T01:41:40.804Z,711.59
2016-03-22T01:41:54.804Z,711.71
2016-03-22T01:42:09.087Z,711.62
2016-03-22T01:42:23.196Z,711.53
2016-03-22T01:42:37.227Z,711.66
2016-03-22T01:42:51.368Z,711.6
2016-03-22T01:43:05.556Z,711.49
2016-03-22T01:43:19.871Z,711.64
2016-03-22T01:43:34.199Z,711.63
2016-03-22T01:43:48.449Z,711.47
2016-03-22T01:44:02.590Z,711.4
2016-03-22T01:44:17.108Z,711.58
2016-03-22T01:44:31.280Z,711.63
2016-03-22T01:44:45.718Z,711.67
2016-03-22T01:44:59.952Z,711.61
2016-03-22T01:45:14.095Z,711.64
2016-03-22T01:45:28.220Z,711.59
2016-03-22T01:45:42.501Z,711.59
2016-03-22T01:45:56.626Z,711.59
2016-03-22T01:46:10.504Z,711.35
2016-03-22T01:46:24.692Z,711.51
2016-03-22T01:46:39.067Z,711.52
2016-03-22T01:46:53.207Z,711.52
2016-03-22T01:47:07.819Z,711.4
2016-03-22T01:47:22.006Z,711.55
2016-03-22T01:47:36.084Z,711.45
2016-03-22T01:47:50.287Z,711.49
2016-03-22T01:48:18.526Z,711.57
2016-03-22T01:48:32.182Z,711.54
2016-03-22T01:48:45.588Z,711.52
2016-03-22T01:48:59.604Z,711.38
2016-03-22T01:49:13.871Z,711.55
2016-03-22T01:49:30.871Z,711.5
2016-03-22T01:49:44.934Z,711.65
2016-03-22T01:49:58.950Z,711.59
2016-03-22T01:50:12.968Z,711.53
2016-03-22T01:50:27.062Z,711.62
2016-03-22T01:50:41.203Z,711.51
2016-03-22T01:50:55.421Z,711.63
2016-03-22T01:51:09.393Z,711.64
2016-03-22T01:51:23.596Z,711.57
2016-03-22T01:51:37.784Z,711.63
2016-03-22T01:51:52.065Z,711.65
2016-03-22T01:52:06.174Z,711.57
2016-03-22T01:52:20.614Z,711.53
2016-03-22T01:52:35.004Z,711.54
2016-03-22T01:52:49.192Z,711.55
2016-03-22T01:53:06.145Z,711.37
2016-03-22T01:53:48.414Z,711.56
2016-03-22T01:54:02.476Z,711.62
2016-03-22T01:54:17.089Z,711.46
2016-03-22T01:54:31.370Z,711.61
2016-03-22T01:54:45.635Z,711.53
2016-03-22T01:54:59.776Z,711.59
2016-03-22T01:55:14.169Z,711.54
2016-03-22T01:55:28.184Z,711.59
2016-03-22T01:55:56.309Z,711.51
2016-03-22T01:56:10.187Z,711.52
2016-03-22T01:56:24.375Z,711.53
2016-03-22T01:56:38.687Z,711.49
2016-03-22T01:56:52.562Z,711.47
2016-03-22T01:57:06.764Z,711.42
2016-03-22T01:57:21.093Z,711.43
2016-03-22T01:57:35.264Z,711.41
2016-03-22T01:57:49.983Z,711.42
2016-03-22T01:58:04.186Z,711.49
2016-03-22T01:58:18.660Z,711.42
2016-03-22T01:58:32.691Z,711.46
2016-03-22T01:58:46.816Z,711.38
2016-03-22T01:59:01.488Z,711.49
2016-03-22T01:59:15.806Z,711.37
2016-03-22T01:59:29.181Z,711.43
2016-03-22T01:59:43.040Z,711.48
2016-03-22T01:59:57.337Z,711.44
2016-03-22T02:00:11.748Z,711.44
2016-03-22T02:00:25.889Z,711.41
2016-03-22T02:00:40.139Z,711.54
2016-03-22T02:00:54.279Z,711.47
2016-03-22T02:01:08.362Z,711.54
2016-03-22T02:01:22.612Z,711.55
2016-03-22T02:01:36.971Z,711.43
2016-03-22T02:01:51.175Z,711.4
2016-03-22T02:02:05.440Z,711.39
2016-03-22T02:02:19.604Z,711.52
2016-03-22T02:02:33.823Z,711.48
2016-03-22T02:02:48.026Z,711.56
2016-03-22T02:03:01.260Z,711.45
2016-03-22T02:03:15.179Z,711.48
2016-03-22T02:03:29.289Z,711.54
2016-03-22T02:03:43.273Z,711.61
2016-03-22T02:03:57.835Z,711.38
2016-03-22T02:04:12.005Z,711.45
2016-03-22T02:04:26.474Z,711.45
2016-03-22T02:04:40.740Z,711.28
2016-03-22T02:04:54.677Z,711.37
2016-03-22T02:05:09.035Z,711.39
2016-03-22T02:05:22.394Z,711.39
2016-03-22T02:05:36.597Z,711.35
2016-03-22T02:05:50.878Z,711.36
2016-03-22T02:06:05.269Z,711.3
2016-03-22T02:06:19.297Z,711.37
2016-03-22T02:06:33.485Z,711.4
2016-03-22T02:06:47.547Z,711.42
2016-03-22T02:07:02.141Z,711.34
2016-03-22T02:07:16.296Z,711.34
2016-03-22T02:07:30.187Z,711.37
2016-03-22T02:07:44.390Z,711.31
2016-03-22T02:07:58.656Z,711.36
2016-03-22T02:08:12.626Z,711.36
2016-03-22T02:08:26.564Z,711.35
2016-03-22T02:08:40.908Z,711.4
2016-03-22T02:08:55.079Z,711.34
2016-03-22T02:09:09.236Z,711.37
2016-03-22T02:09:23.408Z,711.27
2016-03-22T02:09:37.439Z,711.34
2016-03-22T02:09:51.939Z,711.28
2016-03-22T02:10:06.095Z,711.39
2016-03-22T02:10:20.221Z,711.31
2016-03-22T02:10:34.330Z,711.27
2016-03-22T02:10:48.471Z,711.22
2016-03-22T02:11:03.627Z,711.3
2016-03-22T02:11:17.723Z,711.49
2016-03-22T02:11:31.786Z,711.27
2016-03-22T02:11:45.770Z,711.44
2016-03-22T02:12:00.082Z,711.38
2016-03-22T02:12:14.177Z,711.39
2016-03-22T02:12:28.396Z,711.47
2016-03-22T02:12:42.646Z,711.36
2016-03-22T02:12:57.208Z,711.38
2016-03-22T02:13:11.491Z,711.37
2016-03-22T02:13:26.006Z,711.4
2016-03-22T02:13:39.522Z,711.41
2016-03-22T02:13:54.053Z,711.37
2016-03-22T02:14:08.024Z,711.34
2016-03-22T02:14:22.227Z,711.32
2016-03-22T02:14:36.555Z,711.31
2016-03-22T02:14:50.899Z,711.28
2016-03-22T02:15:05.149Z,711.32
2016-03-22T02:15:19.214Z,711.27
2016-03-22T02:15:33.168Z,711.29
2016-03-22T02:15:46.996Z,711.32
2016-03-22T02:16:01.152Z,711.25
2016-03-22T02:16:15.419Z,711.24
2016-03-22T02:16:28.934Z,711.22
2016-03-22T02:16:43.106Z,711.35
2016-03-22T02:16:57.419Z,711.27
2016-03-22T02:17:11.406Z,711.34
2016-03-22T02:17:25.515Z,711.39
2016-03-22T02:17:39.828Z,711.36
2016-03-22T02:17:53.875Z,711.31
2016-03-22T02:18:08.221Z,711.36
2016-03-22T02:18:22.300Z,711.3
2016-03-22T02:18:36.534Z,711.32
2016-03-22T02:18:50.612Z,711.41
2016-03-22T02:19:05.112Z,711.37
2016-03-22T02:19:19.848Z,711.31
2016-03-22T02:19:34.036Z,711.34
2016-03-22T02:19:48.145Z,711.37
2016-03-22T02:20:02.177Z,711.33
2016-03-22T02:20:16.633Z,711.36
2016-03-22T02:20:30.805Z,711.23
2016-03-22T02:20:44.789Z,711.24
2016-03-22T02:20:59.305Z,711.27
2016-03-22T02:21:13.370Z,711.27
2016-03-22T02:21:27.620Z,711.2
2016-03-22T02:21:41.917Z,711.31
2016-03-22T02:21:56.198Z,711.35
2016-03-22T02:22:10.122Z,711.29
2016-03-22T02:22:24.497Z,711.33
2016-03-22T02:22:38.669Z,711.37
2016-03-22T02:22:52.841Z,711.25
2016-03-22T02:23:10.031Z,711.3
2016-03-22T02:23:24.219Z,711.38
2016-03-22T02:23:38.672Z,711.35
2016-03-22T02:24:21.175Z,711.28
2016-03-22T02:24:35.206Z,711.28
2016-03-22T02:24:49.456Z,711.29
2016-03-22T02:25:03.628Z,711.23
2016-03-22T02:25:18.130Z,711.24
2016-03-22T02:25:32.474Z,711.31
2016-03-22T02:25:46.521Z,711.18
2016-03-22T02:26:00.630Z,711.39
2016-03-22T02:26:14.711Z,711.31
2016-03-22T02:26:28.914Z,711.35
2016-03-22T02:26:42.867Z,711.36
2016-03-22T02:26:57.352Z,711.38
2016-03-22T02:27:11.620Z,711.25
2016-03-22T02:27:25.949Z,711.28
2016-03-22T02:27:40.152Z,711.26
2016-03-22T02:27:54.292Z,711.29
2016-03-22T02:28:07.794Z,711.31
2016-03-22T02:28:22.169Z,711.33
2016-03-22T02:28:36.279Z,711.31
2016-03-22T02:28:53.513Z,711.38
2016-03-22T02:29:07.735Z,711.33
2016-03-22T02:29:22.313Z,711.39
2016-03-22T02:29:36.719Z,711.25
2016-03-22T02:29:50.985Z,711.3
2016-03-22T02:30:05.146Z,711.33
2016-03-22T02:30:19.305Z,711.26
2016-03-22T02:30:33.618Z,711.18
2016-03-22T02:30:47.680Z,711.22
2016-03-22T02:31:02.258Z,711.22
2016-03-22T02:31:16.573Z,711.27
2016-03-22T02:31:30.182Z,711.31
2016-03-22T02:31:44.495Z,711.55
2016-03-22T02:31:58.729Z,711.15
2016-03-22T02:32:12.763Z,711.16
2016-03-22T02:32:26.654Z,711.15
2016-03-22T02:32:40.873Z,711.29
2016-03-22T02:32:55.029Z,711.26
2016-03-22T02:33:09.376Z,711.28
2016-03-22T02:33:23.626Z,711.25
2016-03-22T02:33:37.766Z,711.24
2016-03-22T02:33:51.829Z,711.19
2016-03-22T02:34:05.485Z,711.19
2016-03-22T02:34:19.440Z,711.14
2016-03-22T02:34:33.690Z,711.46
2016-03-22T02:34:48.081Z,711.36
2016-03-22T02:35:01.987Z,711.16
2016-03-22T02:35:16.632Z,711.24
2016-03-22T02:35:30.835Z,711.2
2016-03-22T02:35:44.975Z,711.51
2016-03-22T02:35:59.257Z,711.01
2016-03-22T02:36:13.477Z,711.38
2016-03-22T02:36:27.790Z,711.13
2016-03-22T02:36:41.915Z,711.1
2016-03-22T02:36:56.040Z,711.16
2016-03-22T02:37:10.370Z,711.38
2016-03-22T02:37:23.979Z,711.42
2016-03-22T02:37:37.589Z,711.14
2016-03-22T02:37:51.886Z,711.5
2016-03-22T02:38:06.104Z,711.3
2016-03-22T02:38:20.217Z,711.27
2016-03-22T02:38:34.436Z,711.05
2016-03-22T02:38:48.529Z,710.78
2016-03-22T02:39:02.717Z,711.3
2016-03-22T02:39:16.267Z,711.59
2016-03-22T02:39:32.845Z,711.64
2016-03-22T02:39:47.017Z,711.24
2016-03-22T02:40:00.907Z,711.43
2016-03-22T02:40:14.878Z,711.3
2016-03-22T02:40:29.050Z,711.42
2016-03-22T02:40:43.456Z,711.38
2016-03-22T02:40:57.550Z,711.3
2016-03-22T02:41:11.132Z,711.35
2016-03-22T02:41:25.163Z,711.11
2016-03-22T02:41:39.320Z,711.13
2016-03-22T02:41:53.601Z,711.24
2016-03-22T02:42:07.540Z,711.32
2016-03-22T02:42:21.618Z,711.32
2016-03-22T02:42:35.759Z,711.1
2016-03-22T02:43:03.775Z,711.25
2016-03-22T02:43:18.089Z,711.3
2016-03-22T02:43:32.261Z,711.39
2016-03-22T02:43:46.464Z,711.18
2016-03-22T02:44:00.902Z,711.51
2016-03-22T02:44:15.453Z,711.34
2016-03-22T02:44:29.640Z,711.22
2016-03-22T02:44:44.109Z,711.13
2016-03-22T02:44:58.093Z,711.49
2016-03-22T02:45:12.048Z,711.39
2016-03-22T02:45:26.111Z,711.4
2016-03-22T02:45:40.330Z,711.36
2016-03-22T02:45:54.361Z,711.26
2016-03-22T02:46:08.550Z,711.28
2016-03-22T02:46:22.019Z,711.46
2016-03-22T02:46:36.300Z,711.54
2016-03-22T02:46:50.394Z,711.27
2016-03-22T02:47:04.441Z,711.48
2016-03-22T02:47:18.475Z,711.08
2016-03-22T02:47:32.585Z,711.29
2016-03-22T02:47:46.569Z,711.16
2016-03-22T02:48:00.835Z,711.22
2016-03-22T02:48:15.009Z,711.21
2016-03-22T02:48:28.900Z,711.05
2016-03-22T02:48:43.166Z,711.26
2016-03-22T02:48:57.369Z,710.91
2016-03-22T02:49:11.700Z,711.16
2016-03-22T02:49:25.841Z,710.98
2016-03-22T02:49:39.934Z,711.12
2016-03-22T02:49:54.247Z,711.38
2016-03-22T02:50:09.125Z,711.05
2016-03-22T02:50:23.375Z,711.17
2016-03-22T02:50:37.562Z,711.41
2016-03-22T02:50:50.937Z,711.56
2016-03-22T02:51:05.078Z,711.19
2016-03-22T02:51:18.658Z,711.34
2016-03-22T02:51:32.674Z,710.84
2016-03-22T02:51:46.877Z,711.17
2016-03-22T02:52:01.111Z,711.22
2016-03-22T02:52:15.364Z,710.99
2016-03-22T02:52:29.270Z,711.21
2016-03-22T02:52:57.692Z,710.91
2016-03-22T02:53:11.789Z,711.01
2016-03-22T02:53:25.867Z,711.12
2016-03-22T02:53:40.117Z,711.07
2016-03-22T02:53:54.227Z,711.62
2016-03-22T02:54:08.572Z,711.05
2016-03-22T02:54:22.635Z,711.63
2016-03-22T02:54:36.900Z,711.23
2016-03-22T02:54:51.369Z,711.44
2016-03-22T02:55:05.510Z,711.54
2016-03-22T02:55:19.153Z,711.2
2016-03-22T02:55:33.075Z,711.25
2016-03-22T02:55:47.247Z,711
2016-03-22T02:56:01.169Z,711.2
2016-03-22T02:56:15.297Z,711.02
2016-03-22T02:56:43.719Z,710.86
2016-03-22T02:56:57.844Z,711.11
2016-03-22T02:57:11.941Z,711.15
2016-03-22T02:57:26.081Z,711.01
2016-03-22T02:57:40.206Z,710.85
2016-03-22T02:57:54.331Z,710.83
2016-03-22T02:58:08.474Z,711.1
2016-03-22T02:58:22.505Z,711.35
2016-03-22T02:58:36.490Z,711.21
2016-03-22T02:58:50.583Z,711.52
2016-03-22T02:59:04.880Z,711.07
2016-03-22T02:59:19.133Z,711.35
2016-03-22T02:59:33.258Z,711.12
2016-03-22T02:59:47.368Z,711.11
2016-03-22T03:00:01.336Z,711.03
2016-03-22T03:00:15.495Z,711.31
2016-03-22T03:00:29.651Z,711.02
2016-03-22T03:00:43.995Z,711.26
2016-03-22T03:00:58.510Z,710.95
2016-03-22T03:01:12.576Z,711.15
2016-03-22T03:01:26.685Z,710.82
2016-03-22T03:01:41.169Z,711.55
2016-03-22T03:01:55.248Z,711.56
2016-03-22T03:02:09.219Z,710.85
2016-03-22T03:02:23.344Z,711.05
2016-03-22T03:02:37.657Z,710.93
2016-03-22T03:02:51.672Z,710.84
2016-03-22T03:03:05.969Z,711.46
2016-03-22T03:03:20.331Z,711.38
2016-03-22T03:03:34.409Z,711.33
2016-03-22T03:03:48.721Z,711.3
2016-03-22T03:04:02.956Z,711.47
2016-03-22T03:04:16.865Z,711.24